createdAt,value
2022-08-19T00:02:15.277Z,4.63
2022-08-19T00:05:02.583Z,3.15
2022-08-19T00:07:50.277Z,3.78
2022-08-19T00:10:37.280Z,6.33
2022-08-19T00:13:23.928Z,3.50
2022-08-19T00:16:10.544Z,2.60
2022-08-19T00:18:58.996Z,2.80
2022-08-19T00:21:45.645Z,4.00
2022-08-19T00:24:32.297Z,3.25
2022-08-19T00:27:25.795Z,4.60
2022-08-19T00:30:14.040Z,2.70
2022-08-19T00:33:01.336Z,2.88
2022-08-19T00:35:56.106Z,4.27
2022-08-19T00:38:44.144Z,3.50
2022-08-19T00:41:31.746Z,5.40
2022-08-19T00:44:20.937Z,3.92
2022-08-19T00:47:14.070Z,3.13
2022-08-19T00:50:02.141Z,8.25
2022-08-19T00:52:52.683Z,3.47
2022-08-19T00:55:40.525Z,4.28
2022-08-19T00:58:31.024Z,3.23
2022-08-19T01:01:18.146Z,5.03
2022-08-19T01:04:05.351Z,2.78
2022-08-19T01:06:51.990Z,4.22
2022-08-19T01:09:40.289Z,6.18
2022-08-19T01:12:27.261Z,2.72
2022-08-19T01:15:14.860Z,5.68
2022-08-19T01:18:02.608Z,3.53
2022-08-19T01:20:49.839Z,7.07
2022-08-19T01:23:47.199Z,6.05
2022-08-19T01:26:33.719Z,4.50
2022-08-19T01:29:20.403Z,4.47
2022-08-19T01:32:08.749Z,3.70
2022-08-19T01:35:17.875Z,3.72
2022-08-19T01:38:08.305Z,3.85
2022-08-19T01:40:58.077Z,3.75
2022-08-19T01:44:17.744Z,5.18
2022-08-19T01:46:54.237Z,3.33
2022-08-19T01:49:41.258Z,4.25
2022-08-19T01:52:28.548Z,3.70
2022-08-19T01:55:16.512Z,4.55
2022-08-19T01:58:06.094Z,3.65
2022-08-19T02:00:53.119Z,7.22
2022-08-19T02:03:39.848Z,4.20
2022-08-19T02:06:27.212Z,4.10
2022-08-19T02:09:13.823Z,3.15
2022-08-19T02:12:00.859Z,4.60
2022-08-19T02:14:48.849Z,4.53
2022-08-19T02:17:35.956Z,3.97
2022-08-19T02:20:23.447Z,7.40
2022-08-19T02:23:13.774Z,3.70
2022-08-19T02:26:03.135Z,3.95
2022-08-19T02:28:50.008Z,4.20
2022-08-19T02:31:37.964Z,3.10
2022-08-19T02:34:25.934Z,3.92
2022-08-19T02:37:32.661Z,4.30
2022-08-19T02:40:22.045Z,3.60
2022-08-19T02:43:10.606Z,6.13
2022-08-19T02:45:57.731Z,3.78
2022-08-19T02:48:45.715Z,3.88
2022-08-19T02:51:33.962Z,3.25
2022-08-19T02:54:20.786Z,5.90
2022-08-19T02:57:08.741Z,3.05
2022-08-19T02:59:56.292Z,4.65
2022-08-19T03:02:43.064Z,4.70
2022-08-19T03:05:48.229Z,4.93
2022-08-19T03:08:38.871Z,3.95
2022-08-19T03:11:27.905Z,3.80
2022-08-19T03:14:15.473Z,4.10
2022-08-19T03:17:02.476Z,5.05
2022-08-19T03:19:52.345Z,3.92
2022-08-19T03:22:40.617Z,4.07
2022-08-19T03:25:27.293Z,4.70
2022-08-19T03:28:14.917Z,5.05
2022-08-19T03:31:02.762Z,5.20
2022-08-19T03:33:51.082Z,5.28
2022-08-19T03:36:38.864Z,3.70
2022-08-19T03:39:27.773Z,5.15
2022-08-19T03:42:38.621Z,4.47
2022-08-19T03:45:21.539Z,5.03
2022-08-19T03:48:09.052Z,5.03
2022-08-19T03:50:55.882Z,3.95
2022-08-19T03:53:42.778Z,6.30
2022-08-19T03:56:31.240Z,5.13
2022-08-19T03:59:19.769Z,4.05
2022-08-19T04:02:10.166Z,6.63
2022-08-19T04:04:57.208Z,7.80
2022-08-19T04:07:44.097Z,4.70
2022-08-19T04:10:30.963Z,4.45
2022-08-19T04:13:20.103Z,4.97
2022-08-19T04:16:07.289Z,4.43
2022-08-19T04:18:54.093Z,5.95
2022-08-19T04:21:41.421Z,3.83
2022-08-19T04:24:28.093Z,4.50
2022-08-19T04:27:15.034Z,4.40
2022-08-19T04:30:02.948Z,5.38
2022-08-19T04:32:50.540Z,4.80
2022-08-19T04:35:38.201Z,4.43
2022-08-19T04:38:25.110Z,5.07
2022-08-19T04:41:29.439Z,4.77
2022-08-19T04:44:18.972Z,5.82
2022-08-19T04:47:10.858Z,10.45
2022-08-19T04:49:58.426Z,5.97
2022-08-19T04:52:45.149Z,4.53
2022-08-19T04:55:35.428Z,4.70
2022-08-19T04:58:25.281Z,6.82
2022-08-19T05:01:14.297Z,5.53
2022-08-19T05:04:05.059Z,5.03
2022-08-19T05:06:53.229Z,5.55
2022-08-19T05:09:58.491Z,4.35
2022-08-19T05:12:45.909Z,6.20
2022-08-19T05:15:32.971Z,8.80
2022-08-19T05:18:36.998Z,5.70
2022-08-19T05:21:43.278Z,5.63
2022-08-19T05:24:33.435Z,3.78
2022-08-19T05:27:20.496Z,6.23
2022-08-19T05:30:08.216Z,5.40
2022-08-19T05:32:56.749Z,4.50
2022-08-19T05:35:45.064Z,4.95
2022-08-19T05:38:33.309Z,4.68
2022-08-19T05:41:20.149Z,5.50
2022-08-19T05:44:10.058Z,6.05
2022-08-19T05:46:56.873Z,5.15
2022-08-19T05:49:44.098Z,8.27
2022-08-19T05:52:31.056Z,7.43
2022-08-19T05:55:21.292Z,6.90
2022-08-19T05:58:08.892Z,6.13
2022-08-19T06:00:55.712Z,6.53
2022-08-19T06:03:42.609Z,7.00
2022-08-19T06:06:29.341Z,6.97
2022-08-19T06:09:16.402Z,6.43
2022-08-19T06:12:05.572Z,5.05
2022-08-19T06:14:56.101Z,7.18
2022-08-19T06:17:48.321Z,7.90
2022-08-19T06:20:54.970Z,8.23
2022-08-19T06:23:41.946Z,5.45
2022-08-19T06:26:29.283Z,8.00
2022-08-19T06:29:23.762Z,7.10
2022-08-19T06:32:11.766Z,7.07
2022-08-19T06:34:58.513Z,6.97
2022-08-19T06:37:45.380Z,6.32
2022-08-19T06:40:32.432Z,6.53
2022-08-19T06:43:19.386Z,5.88
2022-08-19T06:46:12.470Z,6.60
2022-08-19T06:49:02.050Z,6.28
2022-08-19T06:51:50.829Z,6.05
2022-08-19T06:54:55.639Z,7.00
2022-08-19T06:57:47.153Z,6.10
2022-08-19T07:00:34.004Z,5.97
2022-08-19T07:03:22.254Z,6.63
2022-08-19T07:06:21.325Z,6.88
2022-08-19T07:09:18.758Z,7.50
2022-08-19T07:12:07.024Z,6.55
2022-08-19T07:14:54.349Z,7.30
2022-08-19T07:17:42.204Z,8.18
2022-08-19T07:20:30.770Z,7.07
2022-08-19T07:23:17.813Z,7.97
2022-08-19T07:26:07.173Z,7.83
2022-08-19T07:28:55.604Z,7.27
2022-08-19T07:31:43.641Z,7.18
2022-08-19T07:34:31.149Z,8.93
2022-08-19T07:37:19.363Z,8.30
2022-08-19T07:40:07.404Z,6.90
2022-08-19T07:42:54.674Z,8.95
2022-08-19T07:45:41.385Z,8.73
2022-08-19T07:48:29.510Z,8.45
2022-08-19T07:51:36.747Z,7.50
2022-08-19T07:54:25.829Z,6.95
2022-08-19T07:57:12.930Z,6.95
2022-08-19T07:59:59.728Z,10.07
2022-08-19T08:02:46.628Z,12.98
2022-08-19T08:05:51.639Z,7.38
2022-08-19T08:08:56.077Z,8.35
2022-08-19T08:11:49.726Z,5.88
2022-08-19T08:14:39.004Z,6.60
2022-08-19T08:17:48.581Z,7.63
2022-08-19T08:20:36.665Z,8.77
2022-08-19T08:23:27.225Z,7.55
2022-08-19T08:26:15.934Z,9.20
2022-08-19T08:29:10.854Z,9.55
2022-08-19T08:32:00.448Z,12.20
2022-08-19T08:34:47.480Z,8.87
2022-08-19T08:37:39.836Z,12.30
2022-08-19T08:40:29.737Z,9.77
2022-08-19T08:43:22.185Z,10.93
2022-08-19T08:46:12.284Z,12.52
2022-08-19T08:49:02.255Z,15.40
2022-08-19T08:51:59.838Z,9.73
2022-08-19T08:54:54.955Z,10.38
2022-08-19T08:57:55.782Z,11.23
2022-08-19T09:00:46.857Z,11.77
2022-08-19T09:03:34.705Z,9.38
2022-08-19T09:06:26.003Z,11.70
2022-08-19T09:09:16.961Z,10.30
2022-08-19T09:12:11.645Z,11.48
2022-08-19T09:15:00.946Z,11.05
2022-08-19T09:17:50.159Z,7.07
2022-08-19T09:20:41.309Z,9.38
2022-08-19T09:23:30.188Z,8.50
2022-08-19T09:26:19.926Z,8.07
2022-08-19T09:29:07.711Z,8.07
2022-08-19T09:31:55.908Z,13.55
2022-08-19T09:34:44.261Z,8.93
2022-08-19T09:37:33.050Z,10.07
2022-08-19T09:40:21.078Z,12.15
2022-08-19T09:43:13.506Z,7.70
2022-08-19T09:46:01.199Z,12.95
2022-08-19T09:48:49.306Z,9.63
2022-08-19T09:51:36.553Z,10.43
2022-08-19T09:54:25.952Z,8.55
2022-08-19T09:57:12.609Z,10.57
2022-08-19T09:59:59.859Z,12.02
2022-08-19T10:02:47.116Z,6.68
2022-08-19T10:05:54.637Z,9.52
2022-08-19T10:08:50.043Z,10.57
2022-08-19T10:11:40.090Z,8.43
2022-08-19T10:14:29.186Z,9.40
2022-08-19T10:17:19.819Z,10.13
2022-08-19T10:20:10.173Z,7.55
2022-08-19T10:22:57.804Z,9.38
2022-08-19T10:25:44.905Z,7.85
2022-08-19T10:28:33.182Z,8.93
2022-08-19T10:31:21.393Z,11.32
2022-08-19T10:34:28.667Z,8.60
2022-08-19T10:37:15.809Z,15.18
2022-08-19T10:40:12.279Z,9.23
2022-08-19T10:42:59.203Z,9.40
2022-08-19T10:45:52.549Z,9.80
2022-08-19T10:48:39.908Z,7.30
2022-08-19T10:51:48.658Z,7.75
2022-08-19T10:54:53.709Z,10.23
2022-08-19T10:58:01.368Z,6.57
2022-08-19T11:00:55.376Z,7.80
2022-08-19T11:03:42.455Z,6.18
2022-08-19T11:06:30.273Z,9.02
2022-08-19T11:09:17.653Z,9.38
2022-08-19T11:12:04.874Z,7.17
2022-08-19T11:14:52.039Z,7.70
2022-08-19T11:17:42.393Z,11.37
2022-08-19T11:20:29.408Z,9.15
2022-08-19T11:23:18.058Z,13.45
2022-08-19T11:26:05.135Z,16.60
2022-08-19T11:28:54.232Z,12.20
2022-08-19T11:31:42.430Z,11.82
2022-08-19T11:34:31.744Z,9.00
2022-08-19T11:37:18.446Z,8.10
2022-08-19T11:40:05.465Z,10.73
2022-08-19T11:42:58.245Z,9.98
2022-08-19T11:45:45.413Z,10.77
2022-08-19T11:48:32.252Z,9.57
2022-08-19T11:51:21.100Z,10.82
2022-08-19T11:54:08.412Z,10.43
2022-08-19T11:56:55.061Z,11.68
2022-08-19T11:59:44.143Z,12.30
2022-08-19T12:02:30.639Z,10.85
2022-08-19T12:05:17.241Z,12.70
2022-08-19T12:08:05.849Z,10.40
2022-08-19T12:10:52.658Z,10.17
2022-08-19T12:13:39.795Z,12.20
2022-08-19T12:16:28.166Z,12.15
2022-08-19T12:19:15.380Z,12.70
2022-08-19T12:22:09.009Z,11.52
2022-08-19T12:24:56.982Z,9.98
2022-08-19T12:27:49.625Z,10.05
2022-08-19T12:30:40.529Z,9.40
2022-08-19T12:33:28.993Z,10.38
2022-08-19T12:36:16.977Z,9.37
2022-08-19T12:39:04.357Z,13.13
2022-08-19T12:41:54.623Z,8.37
2022-08-19T12:44:45.007Z,12.02
2022-08-19T12:47:31.682Z,10.63
2022-08-19T12:50:20.454Z,8.82
2022-08-19T12:53:07.407Z,8.90
2022-08-19T12:55:57.889Z,8.90
2022-08-19T12:58:48.874Z,8.98
2022-08-19T13:01:37.666Z,8.40
2022-08-19T13:04:24.262Z,7.18
2022-08-19T13:07:11.005Z,10.25
2022-08-19T13:09:57.689Z,9.23
2022-08-19T13:12:45.472Z,9.38
2022-08-19T13:15:35.590Z,7.43
2022-08-19T13:18:22.546Z,5.70
2022-08-19T13:21:12.460Z,12.20
2022-08-19T13:23:59.555Z,9.40
2022-08-19T13:26:46.273Z,10.13
2022-08-19T13:29:50.961Z,14.60
2022-08-19T13:32:55.938Z,8.13
2022-08-19T13:35:44.153Z,8.07
2022-08-19T13:38:31.368Z,8.90
2022-08-19T13:41:20.337Z,14.13
2022-08-19T13:44:07.952Z,5.75
2022-08-19T13:46:54.707Z,4.88
2022-08-19T13:49:43.590Z,4.33
2022-08-19T13:52:30.613Z,6.32
2022-08-19T13:55:24.914Z,3.20
2022-08-19T13:58:12.531Z,2.17
2022-08-19T14:01:00.140Z,3.08
2022-08-19T14:03:46.920Z,2.40
2022-08-19T14:06:35.708Z,7.55
2022-08-19T14:09:22.456Z,6.43
2022-08-19T14:12:09.546Z,3.37
2022-08-19T14:14:56.466Z,4.32
2022-08-19T14:17:43.950Z,8.60
2022-08-19T14:20:30.494Z,6.97
2022-08-19T14:23:19.029Z,11.73
2022-08-19T14:26:06.466Z,9.63
2022-08-19T14:28:53.762Z,12.20
2022-08-19T14:31:43.644Z,7.60
2022-08-19T14:34:32.555Z,5.10
2022-08-19T14:37:19.189Z,5.00
2022-08-19T14:40:08.269Z,6.97
2022-08-19T14:42:56.672Z,8.32
2022-08-19T14:45:43.521Z,9.20
2022-08-19T14:48:31.075Z,10.13
2022-08-19T14:51:18.041Z,11.15
2022-08-19T14:54:05.244Z,10.63
2022-08-19T14:56:53.528Z,13.38
2022-08-19T14:59:40.133Z,14.77
2022-08-19T15:02:34.554Z,14.02
2022-08-19T15:05:22.153Z,14.80
2022-08-19T15:08:09.469Z,14.55
2022-08-19T15:10:56.600Z,17.60
2022-08-19T15:13:47.460Z,15.52
2022-08-19T15:16:34.969Z,16.10
2022-08-19T15:19:21.804Z,14.13
2022-08-19T15:22:08.820Z,14.67
2022-08-19T15:24:55.874Z,15.00
2022-08-19T15:27:44.189Z,16.40
2022-08-19T15:30:34.169Z,12.18
2022-08-19T15:33:21.408Z,12.57
2022-08-19T15:36:08.373Z,15.63
2022-08-19T15:38:57.063Z,14.35
2022-08-19T15:41:45.245Z,11.45
2022-08-19T15:44:32.367Z,15.45
2022-08-19T15:47:21.073Z,11.82
2022-08-19T15:50:10.743Z,9.85
2022-08-19T15:52:58.494Z,10.10
2022-08-19T15:55:48.192Z,12.05
2022-08-19T15:58:52.993Z,13.15
2022-08-19T16:01:57.538Z,10.87
2022-08-19T16:05:03.733Z,8.25
2022-08-19T16:07:51.008Z,8.67
2022-08-19T16:10:38.320Z,9.48
2022-08-19T16:13:25.135Z,10.30
2022-08-19T16:16:12.007Z,11.77
2022-08-19T16:18:58.871Z,11.55
2022-08-19T16:21:48.730Z,12.88
2022-08-19T16:24:35.900Z,9.68
2022-08-19T16:27:23.263Z,10.30
2022-08-19T16:30:11.181Z,7.40
2022-08-19T16:32:57.782Z,9.97
2022-08-19T16:35:44.598Z,7.30
2022-08-19T16:38:40.373Z,4.93
2022-08-19T16:41:27.858Z,4.55
2022-08-19T16:44:15.695Z,6.32
2022-08-19T16:47:02.526Z,5.30
2022-08-19T16:49:53.657Z,5.82
2022-08-19T16:52:42.522Z,3.92
2022-08-19T16:55:30.918Z,2.80
2022-08-19T16:58:18.153Z,3.97
2022-08-19T17:01:06.205Z,4.50
2022-08-19T17:03:53.146Z,4.53
2022-08-19T17:06:39.645Z,5.85
2022-08-19T17:09:26.594Z,6.40
2022-08-19T17:12:18.931Z,4.07
2022-08-19T17:15:08.125Z,7.25
2022-08-19T17:17:56.882Z,5.10
2022-08-19T17:20:44.045Z,6.10
2022-08-19T17:23:42.212Z,6.10
2022-08-19T17:26:31.240Z,6.70
2022-08-19T17:29:19.441Z,6.22
2022-08-19T17:32:07.642Z,7.65
2022-08-19T17:34:55.060Z,4.00
2022-08-19T17:37:42.579Z,6.68
2022-08-19T17:40:29.371Z,3.35
2022-08-19T17:43:18.477Z,6.43
2022-08-19T17:46:21.422Z,7.33
2022-08-19T17:49:08.564Z,7.53
2022-08-19T17:51:55.058Z,8.00
2022-08-19T17:54:42.541Z,9.38
2022-08-19T17:57:29.483Z,6.10
2022-08-19T18:00:16.592Z,6.82
2022-08-19T18:03:06.445Z,6.43
2022-08-19T18:05:53.437Z,6.63
2022-08-19T18:08:40.425Z,7.32
2022-08-19T18:11:27.106Z,6.38
2022-08-19T18:14:14.005Z,9.05
2022-08-19T18:17:01.497Z,8.82
2022-08-19T18:19:49.793Z,8.80
2022-08-19T18:22:37.920Z,11.30
2022-08-19T18:25:26.005Z,7.22
2022-08-19T18:28:12.730Z,5.45
2022-08-19T18:30:59.442Z,1.48
2022-08-19T18:33:46.507Z,2.60
2022-08-19T18:36:52.923Z,1.30
2022-08-19T18:39:57.741Z,3.10
2022-08-19T18:43:03.101Z,3.40
2022-08-19T18:46:08.201Z,5.00
2022-08-19T18:49:08.753Z,3.05
2022-08-19T18:51:57.418Z,0.80
2022-08-19T18:54:46.794Z,3.80
2022-08-19T18:57:33.770Z,3.20
2022-08-19T19:00:20.718Z,1.10
2022-08-19T19:03:08.405Z,3.70
2022-08-19T19:05:55.321Z,1.92
2022-08-19T19:08:43.296Z,1.13
2022-08-19T19:11:31.321Z,2.80
2022-08-19T19:14:45.577Z,0.93
2022-08-19T19:17:28.494Z,0.57
2022-08-19T19:20:15.354Z,0.47
2022-08-19T19:23:02.245Z,1.50
2022-08-19T19:25:52.193Z,3.20
2022-08-19T19:28:43.935Z,0.57
2022-08-19T19:31:33.347Z,1.90
2022-08-19T19:34:29.308Z,0.50
2022-08-19T19:37:17.375Z,0.50
2022-08-19T19:40:04.338Z,1.00
2022-08-19T19:42:54.414Z,2.47
2022-08-19T19:45:41.291Z,0.20
2022-08-19T19:48:28.742Z,0.57
2022-08-19T19:51:16.296Z,0.75
2022-08-19T19:54:03.695Z,0.90
2022-08-19T19:56:50.622Z,3.30
2022-08-19T19:59:38.797Z,2.53
2022-08-19T20:02:31.981Z,1.30
2022-08-19T20:05:21.044Z,1.85
2022-08-19T20:08:25.485Z,1.75
2022-08-19T20:11:16.317Z,3.50
2022-08-19T20:14:04.113Z,0.80
2022-08-19T20:16:52.957Z,0.50
2022-08-19T20:19:39.781Z,0.60
2022-08-19T20:22:26.576Z,1.45
2022-08-19T20:25:14.308Z,1.67
2022-08-19T20:28:01.498Z,1.35
2022-08-19T20:30:48.341Z,0.90
2022-08-19T20:33:36.673Z,0.85
2022-08-19T20:36:24.577Z,1.73
2022-08-19T20:39:12.271Z,1.25
2022-08-19T20:42:00.689Z,1.27
2022-08-19T20:44:47.757Z,3.08
2022-08-19T20:47:38.750Z,4.70
2022-08-19T20:50:29.979Z,1.97
2022-08-19T20:53:18.896Z,1.23
2022-08-19T20:56:07.662Z,1.30
2022-08-19T20:58:59.363Z,1.33
2022-08-19T21:01:46.654Z,3.00
2022-08-19T21:04:33.565Z,1.90
2022-08-19T21:07:22.637Z,5.65
2022-08-19T21:10:13.133Z,2.67
2022-08-19T21:12:59.815Z,2.53
2022-08-19T21:15:46.678Z,2.65
2022-08-19T21:18:35.350Z,2.33
2022-08-19T21:21:22.521Z,4.57
2022-08-19T21:24:10.674Z,4.13
2022-08-19T21:26:57.476Z,3.47
2022-08-19T21:29:44.231Z,4.63
2022-08-19T21:32:30.984Z,2.22
2022-08-19T21:35:18.051Z,3.67
2022-08-19T21:38:06.524Z,3.45
2022-08-19T21:40:54.562Z,3.90
2022-08-19T21:43:41.464Z,2.00
2022-08-19T21:46:28.846Z,2.05
2022-08-19T21:49:15.617Z,2.38
2022-08-19T21:52:02.821Z,4.30
2022-08-19T21:54:49.605Z,3.22
2022-08-19T21:57:41.355Z,2.65
2022-08-19T22:00:30.108Z,4.10
2022-08-19T22:03:19.444Z,2.25
2022-08-19T22:06:06.221Z,2.42
2022-08-19T22:08:55.310Z,5.18
2022-08-19T22:11:44.365Z,3.20
2022-08-19T22:14:33.598Z,4.72
2022-08-19T22:17:20.604Z,5.45
2022-08-19T22:20:10.437Z,2.90
2022-08-19T22:22:58.434Z,3.20
2022-08-19T22:25:46.925Z,4.50
2022-08-19T22:28:33.745Z,2.88
2022-08-19T22:31:21.984Z,3.72
2022-08-19T22:34:09.609Z,2.83
2022-08-19T22:36:57.296Z,3.33
2022-08-19T22:39:44.007Z,5.85
2022-08-19T22:42:33.137Z,6.47
2022-08-19T22:45:20.657Z,3.45
2022-08-19T22:48:09.915Z,4.40
2022-08-19T22:51:15.054Z,2.87
2022-08-19T22:54:02.623Z,4.95
2022-08-19T22:56:51.384Z,3.58
2022-08-19T22:59:38.004Z,9.38
2022-08-19T23:02:26.351Z,3.80
2022-08-19T23:05:14.853Z,5.00
2022-08-19T23:08:01.638Z,4.30
2022-08-19T23:10:49.144Z,3.20
2022-08-19T23:13:36.110Z,4.47
2022-08-19T23:16:23.336Z,6.80
2022-08-19T23:19:11.101Z,6.20
2022-08-19T23:21:59.185Z,6.07
2022-08-19T23:24:46.168Z,6.80
2022-08-19T23:27:50.976Z,7.17
2022-08-19T23:30:40.021Z,6.25
2022-08-19T23:33:50.598Z,3.53
2022-08-19T23:36:36.513Z,5.15
2022-08-19T23:39:26.299Z,6.65
2022-08-19T23:42:13.564Z,7.78
2022-08-19T23:45:01.670Z,4.63
2022-08-19T23:47:50.578Z,4.90
2022-08-19T23:50:38.136Z,3.33
2022-08-19T23:53:24.789Z,11.07
2022-08-19T23:56:14.455Z,4.47
2022-08-19T23:59:01.172Z,6.00
